sensor_id;sensor_type;location;lat;lon;timestamp;temperature;humidity
22827;DHT22;11580;52.562;13.418;2023-03-24T00:01:00;14.50;39.40
22827;DHT22;11580;52.562;13.418;2023-03-24T00:03:29;14.60;39.60
22827;DHT22;11580;52.562;13.418;2023-03-24T00:05:57;14.60;39.40
22827;DHT22;11580;52.562;13.418;2023-03-24T00:08:27;14.60;39.40
22827;DHT22;11580;52.562;13.418;2023-03-24T00:10:59;14.60;39.30
22827;DHT22;11580;52.562;13.418;2023-03-24T00:13:29;14.70;39.40
22827;DHT22;11580;52.562;13.418;2023-03-24T00:15:57;14.70;39.20
22827;DHT22;11580;52.562;13.418;2023-03-24T00:18:26;14.70;39.10
22827;DHT22;11580;52.562;13.418;2023-03-24T00:20:55;14.70;39.10
22827;DHT22;11580;52.562;13.418;2023-03-24T00:23:25;14.70;39.00
22827;DHT22;11580;52.562;13.418;2023-03-24T00:26:00;14.70;39.00
22827;DHT22;11580;52.562;13.418;2023-03-24T00:28:30;14.70;39.00
22827;DHT22;11580;52.562;13.418;2023-03-24T00:30:59;14.70;38.90
22827;DHT22;11580;52.562;13.418;2023-03-24T00:33:28;14.70;38.90
22827;DHT22;11580;52.562;13.418;2023-03-24T00:35:57;14.70;39.00
22827;DHT22;11580;52.562;13.418;2023-03-24T00:38:25;14.70;38.90
22827;DHT22;11580;52.562;13.418;2023-03-24T00:40:53;14.70;38.90
22827;DHT22;11580;52.562;13.418;2023-03-24T00:43:21;14.70;38.90
22827;DHT22;11580;52.562;13.418;2023-03-24T00:45:48;14.70;39.00
22827;DHT22;11580;52.562;13.418;2023-03-24T00:48:18;14.80;39.00
22827;DHT22;11580;52.562;13.418;2023-03-24T00:50:51;14.80;39.00
22827;DHT22;11580;52.562;13.418;2023-03-24T00:53:18;14.80;39.00
22827;DHT22;11580;52.562;13.418;2023-03-24T00:55:48;14.80;39.00
22827;DHT22;11580;52.562;13.418;2023-03-24T00:58:16;14.80;39.00
22827;DHT22;11580;52.562;13.418;2023-03-24T01:00:46;14.80;39.00
22827;DHT22;11580;52.562;13.418;2023-03-24T01:03:15;14.80;39.00
22827;DHT22;11580;52.562;13.418;2023-03-24T01:05:44;14.90;39.00
22827;DHT22;11580;52.562;13.418;2023-03-24T01:08:15;14.90;39.00
22827;DHT22;11580;52.562;13.418;2023-03-24T01:10:46;14.90;39.00
22827;DHT22;11580;52.562;13.418;2023-03-24T01:13:19;14.90;39.00
22827;DHT22;11580;52.562;13.418;2023-03-24T01:15:47;14.90;39.60
22827;DHT22;11580;52.562;13.418;2023-03-24T01:18:16;15.00;39.00
22827;DHT22;11580;52.562;13.418;2023-03-24T01:20:46;15.00;39.00
22827;DHT22;11580;52.562;13.418;2023-03-24T01:23:19;15.00;38.90
22827;DHT22;11580;52.562;13.418;2023-03-24T01:25:49;15.00;38.80
22827;DHT22;11580;52.562;13.418;2023-03-24T01:28:19;15.10;38.90
22827;DHT22;11580;52.562;13.418;2023-03-24T01:30:50;15.10;38.80
22827;DHT22;11580;52.562;13.418;2023-03-24T01:33:17;15.10;38.80
22827;DHT22;11580;52.562;13.418;2023-03-24T01:35:45;15.20;38.80
22827;DHT22;11580;52.562;13.418;2023-03-24T01:38:13;15.20;38.70
22827;DHT22;11580;52.562;13.418;2023-03-24T01:40:45;15.20;38.70
22827;DHT22;11580;52.562;13.418;2023-03-24T01:43:16;15.20;38.60
22827;DHT22;11580;52.562;13.418;2023-03-24T01:46:04;15.30;38.70
22827;DHT22;11580;52.562;13.418;2023-03-24T01:48:54;15.30;38.70
22827;DHT22;11580;52.562;13.418;2023-03-24T01:51:28;15.30;38.70
22827;DHT22;11580;52.562;13.418;2023-03-24T01:54:03;15.30;38.70
22827;DHT22;11580;52.562;13.418;2023-03-24T01:56:39;15.40;38.80
22827;DHT22;11580;52.562;13.418;2023-03-24T01:59:11;15.40;38.80
22827;DHT22;11580;52.562;13.418;2023-03-24T02:01:46;15.40;38.80
22827;DHT22;11580;52.562;13.418;2023-03-24T02:04:42;15.40;38.70
22827;DHT22;11580;52.562;13.418;2023-03-24T02:07:17;15.40;39.20
22827;DHT22;11580;52.562;13.418;2023-03-24T02:10:00;15.40;38.50
22827;DHT22;11580;52.562;13.418;2023-03-24T02:12:29;15.40;38.50
22827;DHT22;11580;52.562;13.418;2023-03-24T02:15:01;15.40;38.50
22827;DHT22;11580;52.562;13.418;2023-03-24T02:17:46;15.40;38.50
22827;DHT22;11580;52.562;13.418;2023-03-24T02:20:31;15.40;38.40
22827;DHT22;11580;52.562;13.418;2023-03-24T02:23:42;15.40;38.50
22827;DHT22;11580;52.562;13.418;2023-03-24T02:26:55;15.50;39.30
22827;DHT22;11580;52.562;13.418;2023-03-24T02:43:23;15.60;38.50
22827;DHT22;11580;52.562;13.418;2023-03-24T02:46:08;15.60;38.40
22827;DHT22;11580;52.562;13.418;2023-03-24T02:48:49;15.60;38.50
22827;DHT22;11580;52.562;13.418;2023-03-24T02:51:30;15.70;38.60
22827;DHT22;11580;52.562;13.418;2023-03-24T02:54:08;15.80;38.70
22827;DHT22;11580;52.562;13.418;2023-03-24T02:56:43;15.80;38.80
22827;DHT22;11580;52.562;13.418;2023-03-24T02:59:31;15.80;39.80
22827;DHT22;11580;52.562;13.418;2023-03-24T03:02:16;15.90;39.80
22827;DHT22;11580;52.562;13.418;2023-03-24T03:04:55;15.90;39.80
22827;DHT22;11580;52.562;13.418;2023-03-24T03:07:29;16.00;39.60
22827;DHT22;11580;52.562;13.418;2023-03-24T03:10:05;16.00;39.70
22827;DHT22;11580;52.562;13.418;2023-03-24T03:12:42;16.00;39.40
22827;DHT22;11580;52.562;13.418;2023-03-24T03:15:14;16.00;39.50
22827;DHT22;11580;52.562;13.418;2023-03-24T03:17:48;16.00;39.70
22827;DHT22;11580;52.562;13.418;2023-03-24T03:20:21;16.00;39.90
22827;DHT22;11580;52.562;13.418;2023-03-24T03:22:54;16.00;39.70
22827;DHT22;11580;52.562;13.418;2023-03-24T03:25:29;16.00;39.80
22827;DHT22;11580;52.562;13.418;2023-03-24T03:28:04;16.00;39.80
22827;DHT22;11580;52.562;13.418;2023-03-24T03:30:36;16.20;40.00
22827;DHT22;11580;52.562;13.418;2023-03-24T03:33:08;16.00;39.80
22827;DHT22;11580;52.562;13.418;2023-03-24T03:35:45;16.00;39.70
22827;DHT22;11580;52.562;13.418;2023-03-24T03:38:21;16.10;39.80
22827;DHT22;11580;52.562;13.418;2023-03-24T03:40:54;16.00;39.80
22827;DHT22;11580;52.562;13.418;2023-03-24T03:43:30;16.00;39.80
22827;DHT22;11580;52.562;13.418;2023-03-24T03:46:00;16.00;39.80
22827;DHT22;11580;52.562;13.418;2023-03-24T03:48:35;16.00;39.80
22827;DHT22;11580;52.562;13.418;2023-03-24T03:51:04;16.00;39.80
22827;DHT22;11580;52.562;13.418;2023-03-24T03:53:37;16.00;39.80
22827;DHT22;11580;52.562;13.418;2023-03-24T03:56:09;16.00;39.80
22827;DHT22;11580;52.562;13.418;2023-03-24T03:58:49;16.00;39.80
22827;DHT22;11580;52.562;13.418;2023-03-24T04:01:20;16.00;39.80
22827;DHT22;11580;52.562;13.418;2023-03-24T04:04:20;16.00;39.90
22827;DHT22;11580;52.562;13.418;2023-03-24T04:07:22;16.00;40.10
22827;DHT22;11580;52.562;13.418;2023-03-24T04:10:21;16.00;40.00
22827;DHT22;11580;52.562;13.418;2023-03-24T04:13:07;16.00;40.00
22827;DHT22;11580;52.562;13.418;2023-03-24T04:16:19;16.00;40.10
22827;DHT22;11580;52.562;13.418;2023-03-24T04:19:12;16.00;40.10
22827;DHT22;11580;52.562;13.418;2023-03-24T04:21:57;16.00;40.20
22827;DHT22;11580;52.562;13.418;2023-03-24T04:24:43;16.00;40.30
22827;DHT22;11580;52.562;13.418;2023-03-24T04:27:24;16.00;40.20
22827;DHT22;11580;52.562;13.418;2023-03-24T04:30:11;16.00;40.30
22827;DHT22;11580;52.562;13.418;2023-03-24T04:32:47;16.00;40.30
22827;DHT22;11580;52.562;13.418;2023-03-24T04:35:26;16.00;40.30
22827;DHT22;11580;52.562;13.418;2023-03-24T04:38:13;15.90;40.20
22827;DHT22;11580;52.562;13.418;2023-03-24T04:40:55;15.90;40.30
22827;DHT22;11580;52.562;13.418;2023-03-24T04:43:26;15.90;40.30
22827;DHT22;11580;52.562;13.418;2023-03-24T04:46:01;15.90;40.30
22827;DHT22;11580;52.562;13.418;2023-03-24T04:48:37;16.00;40.40
22827;DHT22;11580;52.562;13.418;2023-03-24T04:51:13;15.90;40.40
22827;DHT22;11580;52.562;13.418;2023-03-24T04:53:52;16.00;40.50
22827;DHT22;11580;52.562;13.418;2023-03-24T04:56:29;16.00;40.50
22827;DHT22;11580;52.562;13.418;2023-03-24T04:59:05;16.00;41.20
22827;DHT22;11580;52.562;13.418;2023-03-24T05:01:34;16.00;40.50
22827;DHT22;11580;52.562;13.418;2023-03-24T05:04:35;16.00;41.20
22827;DHT22;11580;52.562;13.418;2023-03-24T05:07:16;16.00;40.50
22827;DHT22;11580;52.562;13.418;2023-03-24T05:09:47;16.20;40.70
22827;DHT22;11580;52.562;13.418;2023-03-24T05:12:14;16.10;41.20
22827;DHT22;11580;52.562;13.418;2023-03-24T05:15:01;16.10;40.50
22827;DHT22;11580;52.562;13.418;2023-03-24T05:17:30;16.10;40.50
22827;DHT22;11580;52.562;13.418;2023-03-24T05:19:58;16.10;40.50
22827;DHT22;11580;52.562;13.418;2023-03-24T05:22:26;16.20;41.30
22827;DHT22;11580;52.562;13.418;2023-03-24T05:24:53;16.20;40.60
22827;DHT22;11580;52.562;13.418;2023-03-24T05:27:20;16.20;40.50
22827;DHT22;11580;52.562;13.418;2023-03-24T05:29:47;16.30;40.60
22827;DHT22;11580;52.562;13.418;2023-03-24T05:32:21;16.30;40.60
22827;DHT22;11580;52.562;13.418;2023-03-24T05:34:48;16.40;40.60
22827;DHT22;11580;52.562;13.418;2023-03-24T05:37:20;16.40;40.60
22827;DHT22;11580;52.562;13.418;2023-03-24T05:39:49;16.50;40.50
22827;DHT22;11580;52.562;13.418;2023-03-24T05:42:31;16.50;40.50
22827;DHT22;11580;52.562;13.418;2023-03-24T05:45:01;16.60;40.60
22827;DHT22;11580;52.562;13.418;2023-03-24T05:47:29;16.60;41.10
22827;DHT22;11580;52.562;13.418;2023-03-24T05:49:56;16.70;40.80
22827;DHT22;11580;52.562;13.418;2023-03-24T05:52:25;16.70;40.30
22827;DHT22;11580;52.562;13.418;2023-03-24T05:55:00;16.70;40.00
22827;DHT22;11580;52.562;13.418;2023-03-24T05:57:27;16.80;40.00
22827;DHT22;11580;52.562;13.418;2023-03-24T06:00:15;16.80;40.70
22827;DHT22;11580;52.562;13.418;2023-03-24T06:03:09;16.80;40.00
22827;DHT22;11580;52.562;13.418;2023-03-24T06:05:45;16.90;40.10
22827;DHT22;11580;52.562;13.418;2023-03-24T06:08:14;16.90;40.10
22827;DHT22;11580;52.562;13.418;2023-03-24T06:10:43;16.90;40.80
22827;DHT22;11580;52.562;13.418;2023-03-24T06:13:10;17.00;40.20
22827;DHT22;11580;52.562;13.418;2023-03-24T06:15:41;17.00;40.20
22827;DHT22;11580;52.562;13.418;2023-03-24T06:18:27;17.00;40.90
22827;DHT22;11580;52.562;13.418;2023-03-24T06:20:57;17.00;40.20
22827;DHT22;11580;52.562;13.418;2023-03-24T06:23:29;17.10;40.90
22827;DHT22;11580;52.562;13.418;2023-03-24T06:26:11;17.10;40.00
22827;DHT22;11580;52.562;13.418;2023-03-24T06:28:52;17.10;40.00
22827;DHT22;11580;52.562;13.418;2023-03-24T06:31:21;17.20;40.10
22827;DHT22;11580;52.562;13.418;2023-03-24T06:33:51;17.20;40.70
22827;DHT22;11580;52.562;13.418;2023-03-24T06:36:18;17.20;40.30
22827;DHT22;11580;52.562;13.418;2023-03-24T06:38:49;17.30;40.50
22827;DHT22;11580;52.562;13.418;2023-03-24T06:41:20;17.40;40.10
22827;DHT22;11580;52.562;13.418;2023-03-24T06:43:52;17.40;40.10
22827;DHT22;11580;52.562;13.418;2023-03-24T06:46:19;17.50;40.70
22827;DHT22;11580;52.562;13.418;2023-03-24T06:48:47;17.60;40.00
22827;DHT22;11580;52.562;13.418;2023-03-24T06:51:15;17.60;39.90
22827;DHT22;11580;52.562;13.418;2023-03-24T06:53:43;17.60;40.30
22827;DHT22;11580;52.562;13.418;2023-03-24T06:56:13;17.70;40.10
22827;DHT22;11580;52.562;13.418;2023-03-24T06:58:46;17.70;40.10
22827;DHT22;11580;52.562;13.418;2023-03-24T07:01:18;17.70;40.20
22827;DHT22;11580;52.562;13.418;2023-03-24T07:03:55;17.80;40.30
22827;DHT22;11580;52.562;13.418;2023-03-24T07:06:48;17.80;40.30
22827;DHT22;11580;52.562;13.418;2023-03-24T07:09:17;17.90;40.20
22827;DHT22;11580;52.562;13.418;2023-03-24T07:11:46;17.90;40.10
22827;DHT22;11580;52.562;13.418;2023-03-24T07:14:14;18.00;40.80
22827;DHT22;11580;52.562;13.418;2023-03-24T07:16:42;18.00;40.30
22827;DHT22;11580;52.562;13.418;2023-03-24T07:19:27;18.10;40.20
22827;DHT22;11580;52.562;13.418;2023-03-24T07:22:25;18.10;40.20
22827;DHT22;11580;52.562;13.418;2023-03-24T07:25:16;18.20;40.20
22827;DHT22;11580;52.562;13.418;2023-03-24T07:27:54;18.30;40.40
22827;DHT22;11580;52.562;13.418;2023-03-24T07:30:22;18.40;40.90
22827;DHT22;11580;52.562;13.418;2023-03-24T07:32:50;18.60;40.60
22827;DHT22;11580;52.562;13.418;2023-03-24T07:35:19;18.70;40.50
22827;DHT22;11580;52.562;13.418;2023-03-24T07:37:47;18.90;40.40
22827;DHT22;11580;52.562;13.418;2023-03-24T07:40:16;19.10;40.60
22827;DHT22;11580;52.562;13.418;2023-03-24T07:42:44;19.30;40.50
22827;DHT22;11580;52.562;13.418;2023-03-24T07:45:33;19.50;40.20
22827;DHT22;11580;52.562;13.418;2023-03-24T07:48:01;19.70;39.60
22827;DHT22;11580;52.562;13.418;2023-03-24T07:50:32;19.90;40.20
22827;DHT22;11580;52.562;13.418;2023-03-24T07:53:03;20.10;39.10
22827;DHT22;11580;52.562;13.418;2023-03-24T07:55:34;20.30;38.60
22827;DHT22;11580;52.562;13.418;2023-03-24T07:58:08;20.40;38.80
22827;DHT22;11580;52.562;13.418;2023-03-24T08:00:39;20.50;38.30
22827;DHT22;11580;52.562;13.418;2023-03-24T08:03:22;20.60;37.10
22827;DHT22;11580;52.562;13.418;2023-03-24T08:06:11;20.60;37.10
22827;DHT22;11580;52.562;13.418;2023-03-24T08:08:42;20.50;37.00
22827;DHT22;11580;52.562;13.418;2023-03-24T08:11:09;20.40;36.90
22827;DHT22;11580;52.562;13.418;2023-03-24T08:13:36;20.40;37.70
22827;DHT22;11580;52.562;13.418;2023-03-24T08:16:05;20.30;36.90
22827;DHT22;11580;52.562;13.418;2023-03-24T08:18:33;20.20;36.80
22827;DHT22;11580;52.562;13.418;2023-03-24T08:21:00;20.10;36.70
22827;DHT22;11580;52.562;13.418;2023-03-24T08:23:28;20.00;36.70
22827;DHT22;11580;52.562;13.418;2023-03-24T08:25:55;19.90;37.20
22827;DHT22;11580;52.562;13.418;2023-03-24T08:28:22;19.80;36.90
22827;DHT22;11580;52.562;13.418;2023-03-24T08:30:49;19.70;37.30
22827;DHT22;11580;52.562;13.418;2023-03-24T08:33:18;19.50;37.70
22827;DHT22;11580;52.562;13.418;2023-03-24T08:35:45;19.50;37.00
22827;DHT22;11580;52.562;13.418;2023-03-24T08:38:13;19.40;37.20
22827;DHT22;11580;52.562;13.418;2023-03-24T08:40:41;19.30;37.20
22827;DHT22;11580;52.562;13.418;2023-03-24T08:43:14;19.20;38.00
22827;DHT22;11580;52.562;13.418;2023-03-24T08:45:42;19.10;36.90
22827;DHT22;11580;52.562;13.418;2023-03-24T08:48:09;19.10;37.40
22827;DHT22;11580;52.562;13.418;2023-03-24T08:50:39;19.00;37.40
22827;DHT22;11580;52.562;13.418;2023-03-24T08:53:07;18.90;37.30
22827;DHT22;11580;52.562;13.418;2023-03-24T08:55:36;18.90;38.30
22827;DHT22;11580;52.562;13.418;2023-03-24T08:58:06;18.90;37.80
22827;DHT22;11580;52.562;13.418;2023-03-24T09:00:33;18.80;38.60
22827;DHT22;11580;52.562;13.418;2023-03-24T09:03:01;18.80;38.00
22827;DHT22;11580;52.562;13.418;2023-03-24T09:05:28;18.80;38.00
22827;DHT22;11580;52.562;13.418;2023-03-24T09:07:56;18.90;38.80
22827;DHT22;11580;52.562;13.418;2023-03-24T09:10:25;18.90;38.60
22827;DHT22;11580;52.562;13.418;2023-03-24T09:12:52;19.00;38.20
22827;DHT22;11580;52.562;13.418;2023-03-24T09:15:20;19.00;38.10
22827;DHT22;11580;52.562;13.418;2023-03-24T09:17:47;19.10;38.10
22827;DHT22;11580;52.562;13.418;2023-03-24T09:20:14;19.10;38.60
22827;DHT22;11580;52.562;13.418;2023-03-24T09:22:44;19.20;37.90
22827;DHT22;11580;52.562;13.418;2023-03-24T09:25:15;19.20;37.80
22827;DHT22;11580;52.562;13.418;2023-03-24T09:27:43;19.30;37.50
22827;DHT22;11580;52.562;13.418;2023-03-24T09:30:12;19.40;37.90
22827;DHT22;11580;52.562;13.418;2023-03-24T09:32:40;19.50;37.80
22827;DHT22;11580;52.562;13.418;2023-03-24T09:35:08;19.60;38.00
22827;DHT22;11580;52.562;13.418;2023-03-24T09:37:37;19.70;37.90
22827;DHT22;11580;52.562;13.418;2023-03-24T09:40:06;19.80;37.70
22827;DHT22;11580;52.562;13.418;2023-03-24T09:42:37;20.00;37.60
22827;DHT22;11580;52.562;13.418;2023-03-24T09:45:12;20.20;36.80
22827;DHT22;11580;52.562;13.418;2023-03-24T09:47:45;20.30;36.80
22827;DHT22;11580;52.562;13.418;2023-03-24T09:50:20;20.40;36.90
22827;DHT22;11580;52.562;13.418;2023-03-24T09:52:53;20.60;36.70
22827;DHT22;11580;52.562;13.418;2023-03-24T09:55:24;20.80;37.30
22827;DHT22;11580;52.562;13.418;2023-03-24T09:57:57;21.00;37.30
22827;DHT22;11580;52.562;13.418;2023-03-24T10:00:30;21.20;36.10
22827;DHT22;11580;52.562;13.418;2023-03-24T10:03:01;21.30;37.00
22827;DHT22;11580;52.562;13.418;2023-03-24T10:05:43;21.50;36.80
22827;DHT22;11580;52.562;13.418;2023-03-24T10:08:16;21.60;35.60
22827;DHT22;11580;52.562;13.418;2023-03-24T10:10:54;21.70;35.00
22827;DHT22;11580;52.562;13.418;2023-03-24T10:13:30;21.80;34.60
22827;DHT22;11580;52.562;13.418;2023-03-24T10:16:14;21.90;34.10
22827;DHT22;11580;52.562;13.418;2023-03-24T10:18:52;21.90;34.80
22827;DHT22;11580;52.562;13.418;2023-03-24T10:21:26;22.00;34.00
22827;DHT22;11580;52.562;13.418;2023-03-24T10:24:02;22.10;34.60
22827;DHT22;11580;52.562;13.418;2023-03-24T10:26:43;22.10;33.40
22827;DHT22;11580;52.562;13.418;2023-03-24T10:29:21;22.20;33.00
22827;DHT22;11580;52.562;13.418;2023-03-24T10:31:53;22.20;32.20
22827;DHT22;11580;52.562;13.418;2023-03-24T10:34:27;22.40;33.10
22827;DHT22;11580;52.562;13.418;2023-03-24T10:36:57;22.40;32.30
22827;DHT22;11580;52.562;13.418;2023-03-24T10:39:28;22.50;32.80
22827;DHT22;11580;52.562;13.418;2023-03-24T10:41:57;22.60;32.80
22827;DHT22;11580;52.562;13.418;2023-03-24T10:44:26;22.70;32.60
22827;DHT22;11580;52.562;13.418;2023-03-24T10:46:58;22.80;32.30
22827;DHT22;11580;52.562;13.418;2023-03-24T10:49:29;22.90;32.20
22827;DHT22;11580;52.562;13.418;2023-03-24T10:52:00;23.00;33.40
22827;DHT22;11580;52.562;13.418;2023-03-24T10:54:30;23.10;31.90
22827;DHT22;11580;52.562;13.418;2023-03-24T10:57:02;23.20;32.00
22827;DHT22;11580;52.562;13.418;2023-03-24T10:59:36;23.30;30.80
22827;DHT22;11580;52.562;13.418;2023-03-24T11:02:16;23.30;31.60
22827;DHT22;11580;52.562;13.418;2023-03-24T11:04:51;23.30;30.40
22827;DHT22;11580;52.562;13.418;2023-03-24T11:07:22;23.40;30.70
22827;DHT22;11580;52.562;13.418;2023-03-24T11:09:59;23.40;31.20
22827;DHT22;11580;52.562;13.418;2023-03-24T11:12:32;23.40;30.00
22827;DHT22;11580;52.562;13.418;2023-03-24T11:15:17;23.40;30.60
22827;DHT22;11580;52.562;13.418;2023-03-24T11:17:47;23.40;29.60
22827;DHT22;11580;52.562;13.418;2023-03-24T11:20:25;23.40;30.50
22827;DHT22;11580;52.562;13.418;2023-03-24T11:22:58;23.40;29.90
22827;DHT22;11580;52.562;13.418;2023-03-24T11:25:28;23.40;30.00
22827;DHT22;11580;52.562;13.418;2023-03-24T11:27:59;23.40;30.50
22827;DHT22;11580;52.562;13.418;2023-03-24T11:30:33;23.40;30.00
22827;DHT22;11580;52.562;13.418;2023-03-24T11:33:16;23.50;29.90
22827;DHT22;11580;52.562;13.418;2023-03-24T11:35:47;23.50;29.80
22827;DHT22;11580;52.562;13.418;2023-03-24T11:38:15;23.60;30.40
22827;DHT22;11580;52.562;13.418;2023-03-24T11:40:54;23.60;30.00
22827;DHT22;11580;52.562;13.418;2023-03-24T11:43:24;23.70;29.40
22827;DHT22;11580;52.562;13.418;2023-03-24T11:45:58;23.70;29.90
22827;DHT22;11580;52.562;13.418;2023-03-24T11:48:34;23.80;29.10
22827;DHT22;11580;52.562;13.418;2023-03-24T11:51:08;23.80;29.30
22827;DHT22;11580;52.562;13.418;2023-03-24T11:53:41;23.80;29.10
22827;DHT22;11580;52.562;13.418;2023-03-24T11:56:18;23.90;29.30
22827;DHT22;11580;52.562;13.418;2023-03-24T11:58:57;23.90;28.70
22827;DHT22;11580;52.562;13.418;2023-03-24T12:01:37;24.00;28.80
22827;DHT22;11580;52.562;13.418;2023-03-24T12:04:31;24.00;28.50
22827;DHT22;11580;52.562;13.418;2023-03-24T12:07:37;24.00;28.00
22827;DHT22;11580;52.562;13.418;2023-03-24T12:10:23;24.00;28.70
22827;DHT22;11580;52.562;13.418;2023-03-24T12:13:08;23.90;28.00
22827;DHT22;11580;52.562;13.418;2023-03-24T12:15:53;23.80;28.10
22827;DHT22;11580;52.562;13.418;2023-03-24T12:18:38;23.80;27.90
22827;DHT22;11580;52.562;13.418;2023-03-24T12:21:27;23.80;27.90
22827;DHT22;11580;52.562;13.418;2023-03-24T12:24:15;23.80;29.00
22827;DHT22;11580;52.562;13.418;2023-03-24T12:26:57;23.80;27.90
22827;DHT22;11580;52.562;13.418;2023-03-24T12:29:43;23.80;27.90
22827;DHT22;11580;52.562;13.418;2023-03-24T12:35:40;23.70;27.80
22827;DHT22;11580;52.562;13.418;2023-03-24T12:38:28;23.60;27.80
22827;DHT22;11580;52.562;13.418;2023-03-24T12:41:18;23.50;27.00
22827;DHT22;11580;52.562;13.418;2023-03-24T12:44:22;23.40;26.50
22827;DHT22;11580;52.562;13.418;2023-03-24T12:47:06;23.30;26.40
22827;DHT22;11580;52.562;13.418;2023-03-24T12:50:02;23.20;26.40
22827;DHT22;11580;52.562;13.418;2023-03-24T12:53:09;23.10;25.90
22827;DHT22;11580;52.562;13.418;2023-03-24T12:55:50;23.10;25.80
22827;DHT22;11580;52.562;13.418;2023-03-24T12:58:25;23.00;26.30
22827;DHT22;11580;52.562;13.418;2023-03-24T13:01:03;22.90;26.10
22827;DHT22;11580;52.562;13.418;2023-03-24T13:03:37;22.80;25.90
22827;DHT22;11580;52.562;13.418;2023-03-24T13:06:14;22.70;26.00
22827;DHT22;11580;52.562;13.418;2023-03-24T13:08:56;22.60;26.20
22827;DHT22;11580;52.562;13.418;2023-03-24T13:11:37;22.40;25.70
22827;DHT22;11580;52.562;13.418;2023-03-24T13:14:15;22.40;26.30
22827;DHT22;11580;52.562;13.418;2023-03-24T13:16:49;22.20;26.40
22827;DHT22;11580;52.562;13.418;2023-03-24T13:19:21;22.10;26.80
22827;DHT22;11580;52.562;13.418;2023-03-24T13:21:52;22.00;25.60
22827;DHT22;11580;52.562;13.418;2023-03-24T13:24:22;21.90;25.40
22827;DHT22;11580;52.562;13.418;2023-03-24T13:26:57;21.80;24.90
22827;DHT22;11580;52.562;13.418;2023-03-24T13:29:48;21.70;24.40
22827;DHT22;11580;52.562;13.418;2023-03-24T13:32:34;21.60;24.60
22827;DHT22;11580;52.562;13.418;2023-03-24T13:35:14;21.50;24.90
22827;DHT22;11580;52.562;13.418;2023-03-24T13:37:51;21.40;24.40
22827;DHT22;11580;52.562;13.418;2023-03-24T13:40:25;21.30;25.20
22827;DHT22;11580;52.562;13.418;2023-03-24T13:42:55;21.20;24.50
22827;DHT22;11580;52.562;13.418;2023-03-24T13:45:30;21.20;24.80
22827;DHT22;11580;52.562;13.418;2023-03-24T13:48:17;21.20;24.60
22827;DHT22;11580;52.562;13.418;2023-03-24T13:50:53;21.10;24.20
22827;DHT22;11580;52.562;13.418;2023-03-24T13:53:37;21.10;25.20
22827;DHT22;11580;52.562;13.418;2023-03-24T13:56:09;21.10;24.50
22827;DHT22;11580;52.562;13.418;2023-03-24T13:59:06;21.00;26.10
22827;DHT22;11580;52.562;13.418;2023-03-24T14:02:16;20.90;25.60
22827;DHT22;11580;52.562;13.418;2023-03-24T14:04:47;20.80;25.10
22827;DHT22;11580;52.562;13.418;2023-03-24T14:07:47;20.70;25.80
22827;DHT22;11580;52.562;13.418;2023-03-24T14:10:41;20.50;25.50
22827;DHT22;11580;52.562;13.418;2023-03-24T14:13:20;20.40;25.60
22827;DHT22;11580;52.562;13.418;2023-03-24T14:15:50;20.30;25.60
22827;DHT22;11580;52.562;13.418;2023-03-24T14:18:40;20.20;25.80
22827;DHT22;11580;52.562;13.418;2023-03-24T14:21:08;20.10;25.40
22827;DHT22;11580;52.562;13.418;2023-03-24T14:23:38;20.10;26.00
22827;DHT22;11580;52.562;13.418;2023-03-24T14:26:11;20.10;26.10
22827;DHT22;11580;52.562;13.418;2023-03-24T14:28:41;20.10;26.10
22827;DHT22;11580;52.562;13.418;2023-03-24T14:31:22;20.10;26.60
22827;DHT22;11580;52.562;13.418;2023-03-24T14:34:06;20.10;26.10
22827;DHT22;11580;52.562;13.418;2023-03-24T14:36:39;20.20;26.20
22827;DHT22;11580;52.562;13.418;2023-03-24T14:39:18;20.20;26.60
22827;DHT22;11580;52.562;13.418;2023-03-24T14:41:52;20.20;26.60
22827;DHT22;11580;52.562;13.418;2023-03-24T14:44:50;20.30;27.00
22827;DHT22;11580;52.562;13.418;2023-03-24T14:47:20;20.30;25.80
22827;DHT22;11580;52.562;13.418;2023-03-24T14:49:51;20.40;26.70
22827;DHT22;11580;52.562;13.418;2023-03-24T14:52:23;20.50;26.20
22827;DHT22;11580;52.562;13.418;2023-03-24T14:54:55;20.50;25.70
22827;DHT22;11580;52.562;13.418;2023-03-24T14:57:25;20.60;25.90
22827;DHT22;11580;52.562;13.418;2023-03-24T14:59:58;20.60;25.80
22827;DHT22;11580;52.562;13.418;2023-03-24T15:02:38;20.70;25.30
22827;DHT22;11580;52.562;13.418;2023-03-24T15:05:33;20.70;25.80
22827;DHT22;11580;52.562;13.418;2023-03-24T15:08:10;20.80;25.20
22827;DHT22;11580;52.562;13.418;2023-03-24T15:10:45;20.80;24.70
22827;DHT22;11580;52.562;13.418;2023-03-24T15:13:33;20.90;24.80
22827;DHT22;11580;52.562;13.418;2023-03-24T15:16:05;20.90;24.10
22827;DHT22;11580;52.562;13.418;2023-03-24T15:18:45;20.90;24.50
22827;DHT22;11580;52.562;13.418;2023-03-24T15:21:23;20.90;24.10
22827;DHT22;11580;52.562;13.418;2023-03-24T15:23:53;20.90;23.70
22827;DHT22;11580;52.562;13.418;2023-03-24T15:26:22;20.80;24.30
22827;DHT22;11580;52.562;13.418;2023-03-24T15:28:59;20.80;24.40
22827;DHT22;11580;52.562;13.418;2023-03-24T15:31:28;20.80;23.90
22827;DHT22;11580;52.562;13.418;2023-03-24T15:34:04;20.70;24.40
22827;DHT22;11580;52.562;13.418;2023-03-24T15:36:38;20.70;24.40
22827;DHT22;11580;52.562;13.418;2023-03-24T15:39:17;20.70;23.90
22827;DHT22;11580;52.562;13.418;2023-03-24T15:41:49;20.60;23.80
22827;DHT22;11580;52.562;13.418;2023-03-24T15:44:19;20.60;24.10
22827;DHT22;11580;52.562;13.418;2023-03-24T15:46:49;20.60;24.40
22827;DHT22;11580;52.562;13.418;2023-03-24T15:49:24;20.60;24.30
22827;DHT22;11580;52.562;13.418;2023-03-24T15:51:58;20.60;23.90
22827;DHT22;11580;52.562;13.418;2023-03-24T15:54:28;20.50;23.60
22827;DHT22;11580;52.562;13.418;2023-03-24T15:57:09;20.40;23.70
22827;DHT22;11580;52.562;13.418;2023-03-24T15:59:46;20.30;23.30
22827;DHT22;11580;52.562;13.418;2023-03-24T16:02:27;20.20;23.40
22827;DHT22;11580;52.562;13.418;2023-03-24T16:04:59;20.10;23.70
22827;DHT22;11580;52.562;13.418;2023-03-24T16:07:31;19.90;23.90
22827;DHT22;11580;52.562;13.418;2023-03-24T16:10:02;19.80;23.80
22827;DHT22;11580;52.562;13.418;2023-03-24T16:12:33;19.70;24.10
22827;DHT22;11580;52.562;13.418;2023-03-24T16:15:01;19.60;24.20
22827;DHT22;11580;52.562;13.418;2023-03-24T16:17:30;19.60;24.30
22827;DHT22;11580;52.562;13.418;2023-03-24T16:19:58;19.50;24.30
22827;DHT22;11580;52.562;13.418;2023-03-24T16:22:25;19.50;24.80